createdAt,value
2018-01-18T00:01:11.290Z,92.10
2018-01-18T00:03:38.712Z,91.70
2018-01-18T00:06:06.920Z,91.80
2018-01-18T00:08:34.352Z,92.10
2018-01-18T00:11:02.759Z,92.00
2018-01-18T00:13:30.214Z,91.80
2018-01-18T00:15:57.639Z,92.50
2018-01-18T00:18:25.828Z,92.80
2018-01-18T00:20:53.258Z,92.80
2018-01-18T00:23:20.699Z,92.50
2018-01-18T00:25:48.136Z,92.70
2018-01-18T00:28:16.368Z,92.50
2018-01-18T00:30:43.796Z,92.50
2018-01-18T00:33:11.246Z,92.60
2018-01-18T00:35:38.665Z,91.90
2018-01-18T00:38:06.931Z,91.30
2018-01-18T00:40:34.383Z,91.30
2018-01-18T00:43:01.807Z,90.90
2018-01-18T00:45:29.236Z,91.70
2018-01-18T00:47:56.674Z,92.00
2018-01-18T00:50:25.010Z,92.10
2018-01-18T00:52:52.453Z,91.90
2018-01-18T00:55:20.833Z,92.40
2018-01-18T00:57:48.269Z,92.00
2018-01-18T01:00:15.713Z,91.80
2018-01-18T01:02:43.908Z,92.50
2018-01-18T01:05:11.344Z,92.50
2018-01-18T01:07:39.563Z,92.00
2018-01-18T01:10:07.032Z,92.00
2018-01-18T01:12:34.460Z,92.50
2018-01-18T01:15:01.896Z,92.40
2018-01-18T01:17:30.095Z,92.20
2018-01-18T01:19:57.525Z,92.20
2018-01-18T01:22:25.737Z,92.40
2018-01-18T01:24:53.961Z,92.50
2018-01-18T01:27:21.386Z,92.50
2018-01-18T01:29:48.832Z,92.30
2018-01-18T01:32:16.269Z,92.30
2018-01-18T01:34:43.709Z,92.10
2018-01-18T01:37:11.926Z,92.00
2018-01-18T01:39:39.383Z,92.00
2018-01-18T01:42:06.804Z,92.00
2018-01-18T01:44:34.244Z,92.20
2018-01-18T01:47:03.752Z,92.40
2018-01-18T01:49:31.500Z,92.30
2018-01-18T01:51:58.934Z,91.70
2018-01-18T01:54:26.356Z,92.40
2018-01-18T01:56:53.789Z,92.30
2018-01-18T01:59:22.004Z,92.00
2018-01-18T02:01:49.886Z,91.90
2018-01-18T02:04:17.349Z,92.00
2018-01-18T02:06:44.784Z,92.30
2018-01-18T02:09:12.226Z,92.30
2018-01-18T02:11:39.660Z,92.20
2018-01-18T02:14:07.896Z,92.10
2018-01-18T02:16:35.333Z,92.00
2018-01-18T02:19:02.788Z,91.90
2018-01-18T02:21:30.222Z,92.00
2018-01-18T02:23:58.425Z,91.90
2018-01-18T02:26:25.878Z,91.90
2018-01-18T02:28:53.333Z,92.40
2018-01-18T02:31:20.783Z,92.60
2018-01-18T02:33:48.241Z,92.70
2018-01-18T02:36:16.424Z,92.80
2018-01-18T02:38:43.870Z,92.80
2018-01-18T02:41:11.326Z,92.80
2018-01-18T02:43:38.766Z,93.00
2018-01-18T02:46:06.971Z,93.20
2018-01-18T02:48:34.401Z,93.20
2018-01-18T02:51:02.605Z,93.20
2018-01-18T02:53:30.060Z,93.20
2018-01-18T02:55:57.501Z,93.10
2018-01-18T02:58:24.944Z,92.80
2018-01-18T03:00:53.168Z,93.60
2018-01-18T03:03:20.608Z,93.60
2018-01-18T03:05:48.047Z,93.60
2018-01-18T03:08:15.500Z,93.70
2018-01-18T03:10:43.721Z,94.00
2018-01-18T03:13:11.152Z,94.00
2018-01-18T03:15:38.593Z,94.20
2018-01-18T03:18:06.026Z,94.20
2018-01-18T03:20:34.240Z,94.50
2018-01-18T03:23:01.677Z,94.10
2018-01-18T03:25:29.981Z,94.60
2018-01-18T03:27:57.409Z,94.60
2018-01-18T03:30:25.611Z,94.90
2018-01-18T03:32:53.045Z,94.90
2018-01-18T03:35:20.480Z,95.10
2018-01-18T03:37:48.707Z,95.70
2018-01-18T03:40:16.163Z,95.70
2018-01-18T03:42:43.600Z,95.70
2018-01-18T03:45:11.054Z,95.50
2018-01-18T03:47:38.480Z,95.60
2018-01-18T03:50:06.016Z,95.40
2018-01-18T03:52:33.465Z,95.50
2018-01-18T03:55:00.901Z,95.40
2018-01-18T03:57:28.324Z,96.10
2018-01-18T03:59:56.556Z,96.00
2018-01-18T04:02:24.324Z,96.00
2018-01-18T04:04:51.785Z,96.10
2018-01-18T04:07:19.218Z,96.10
2018-01-18T04:09:46.665Z,96.40
2018-01-18T04:12:14.092Z,96.80
2018-01-18T04:14:43.240Z,96.50
2018-01-18T04:17:10.986Z,96.40
2018-01-18T04:19:38.421Z,96.60
2018-01-18T04:22:06.632Z,97.50
2018-01-18T04:24:34.047Z,97.50
2018-01-18T04:27:02.309Z,98.00
2018-01-18T04:29:29.740Z,97.90
2018-01-18T04:31:57.172Z,97.60
2018-01-18T04:34:24.596Z,97.70
2018-01-18T04:36:52.808Z,97.80
2018-01-18T04:39:20.244Z,97.80
2018-01-18T04:41:47.710Z,97.80
2018-01-18T04:44:15.184Z,98.00
2018-01-18T04:46:42.645Z,98.00
2018-01-18T04:49:10.080Z,98.00
2018-01-18T04:51:37.524Z,98.20
2018-01-18T04:54:05.727Z,98.10
2018-01-18T04:56:33.165Z,98.00
2018-01-18T04:59:00.596Z,98.60
2018-01-18T05:01:28.792Z,99.50
2018-01-18T05:03:56.850Z,99.50
2018-01-18T05:06:24.401Z,99.40
2018-01-18T05:08:51.836Z,99.40
2018-01-18T05:11:19.297Z,99.40
2018-01-18T05:13:47.491Z,99.30
2018-01-18T05:16:14.928Z,99.30
2018-01-18T05:18:42.397Z,99.50
2018-01-18T05:21:09.842Z,99.30
2018-01-18T05:23:37.284Z,99.00
2018-01-18T05:26:04.721Z,98.90
2018-01-18T05:28:32.148Z,99.50
2018-01-18T05:31:00.371Z,99.90
2018-01-18T05:33:27.823Z,99.90
2018-01-18T05:35:55.370Z,99.90
2018-01-18T05:38:24.484Z,99.60
2018-01-18T05:40:51.957Z,99.60
2018-01-18T05:43:19.408Z,99.80
2018-01-18T05:45:46.859Z,99.90
2018-01-18T05:48:14.300Z,99.70
2018-01-18T05:50:41.769Z,99.90
2018-01-18T05:53:09.194Z,99.90
2018-01-18T05:55:36.649Z,99.90
2018-01-18T05:58:04.858Z,99.40
2018-01-18T06:00:32.306Z,99.40
2018-01-18T06:02:59.741Z,99.80
2018-01-18T06:05:27.169Z,99.90
2018-01-18T06:07:54.601Z,99.90
2018-01-18T06:10:22.046Z,99.90
2018-01-18T06:12:49.504Z,99.90
2018-01-18T06:15:16.949Z,99.90
2018-01-18T06:17:44.403Z,99.90
2018-01-18T06:20:11.884Z,99.90
2018-01-18T06:22:39.339Z,99.90
2018-01-18T06:25:06.773Z,99.90
2018-01-18T06:27:34.217Z,99.90
2018-01-18T06:30:01.661Z,99.90
2018-01-18T06:32:29.873Z,99.90
2018-01-18T06:34:57.666Z,99.90
2018-01-18T06:37:25.913Z,99.90
2018-01-18T06:39:53.334Z,99.90
2018-01-18T06:42:21.921Z,99.90
2018-01-18T06:44:49.348Z,99.90
2018-01-18T06:47:16.832Z,99.90
2018-01-18T06:49:45.035Z,99.90
2018-01-18T06:52:12.456Z,99.90
2018-01-18T06:54:40.655Z,99.90
2018-01-18T06:57:08.094Z,99.90
2018-01-18T06:59:36.313Z,99.90
2018-01-18T07:02:03.759Z,99.90
2018-01-18T07:04:31.198Z,99.90
2018-01-18T07:06:58.625Z,99.90
2018-01-18T07:09:26.059Z,99.90
2018-01-18T07:11:53.494Z,99.90
2018-01-18T07:14:20.915Z,99.90
2018-01-18T07:16:49.124Z,99.90
2018-01-18T07:19:16.568Z,99.90
2018-01-18T07:21:44.012Z,99.90
2018-01-18T07:24:12.284Z,99.90
2018-01-18T07:26:39.673Z,99.90
2018-01-18T07:29:07.112Z,99.90
2018-01-18T07:31:34.556Z,99.90
2018-01-18T07:34:02.759Z,99.90
2018-01-18T07:36:31.384Z,99.90
2018-01-18T07:38:58.820Z,99.90
2018-01-18T07:41:26.836Z,99.90
2018-01-18T07:43:55.035Z,99.90
2018-01-18T07:46:22.455Z,99.90
2018-01-18T07:48:49.881Z,99.90
2018-01-18T07:51:17.300Z,99.90
2018-01-18T07:53:44.733Z,99.90
2018-01-18T07:56:12.932Z,99.90
2018-01-18T07:58:41.121Z,99.90
2018-01-18T08:01:08.551Z,99.90
2018-01-18T08:03:42.576Z,99.90
2018-01-18T08:06:10.015Z,99.90
2018-01-18T08:08:38.208Z,99.90
2018-01-18T08:11:05.651Z,99.90
2018-01-18T08:13:33.868Z,99.90
2018-01-18T08:16:01.328Z,99.90
2018-01-18T08:18:28.756Z,99.90
2018-01-18T08:20:56.181Z,99.90
2018-01-18T08:23:25.305Z,99.90
2018-01-18T08:25:52.755Z,99.90
2018-01-18T08:28:20.959Z,99.90
2018-01-18T08:30:48.444Z,99.90
2018-01-18T08:33:15.878Z,99.90
2018-01-18T08:35:43.351Z,99.90
2018-01-18T08:38:10.781Z,99.90
2018-01-18T08:40:38.222Z,99.60
2018-01-18T08:43:06.422Z,99.00
2018-01-18T08:45:33.856Z,99.00
2018-01-18T08:48:01.313Z,98.50
2018-01-18T08:50:29.513Z,98.40
2018-01-18T08:52:56.952Z,98.30
2018-01-18T08:55:24.656Z,98.80
2018-01-18T08:57:52.093Z,99.20
2018-01-18T09:00:19.560Z,99.60
2018-01-18T09:02:47.015Z,99.20
2018-01-18T09:05:14.452Z,98.60
2018-01-18T09:07:41.905Z,98.30
2018-01-18T09:10:09.338Z,97.90
2018-01-18T09:12:37.532Z,97.00
2018-01-18T09:15:04.976Z,96.90
2018-01-18T09:17:33.168Z,96.50
2018-01-18T09:20:00.611Z,96.50
2018-01-18T09:22:28.796Z,97.40
2018-01-18T09:24:56.232Z,97.40
2018-01-18T09:27:25.373Z,97.90
2018-01-18T09:29:52.808Z,97.90
2018-01-18T09:32:20.262Z,97.10
2018-01-18T09:34:48.470Z,95.70
2018-01-18T09:37:15.928Z,95.70
2018-01-18T09:39:43.390Z,95.60
2018-01-18T09:42:10.831Z,94.50
2018-01-18T09:44:38.265Z,93.50
2018-01-18T09:47:06.463Z,91.00
2018-01-18T09:49:33.896Z,91.00
2018-01-18T09:52:02.091Z,89.60
2018-01-18T09:54:29.599Z,89.60
2018-01-18T09:56:57.035Z,90.00
2018-01-18T09:59:24.723Z,85.80
2018-01-18T10:01:52.140Z,84.90
2018-01-18T10:04:19.577Z,82.70
2018-01-18T10:06:47.025Z,82.20
2018-01-18T10:09:15.225Z,80.90
2018-01-18T10:11:42.669Z,81.20
2018-01-18T10:14:10.096Z,79.60
2018-01-18T10:16:38.312Z,78.60
2018-01-18T10:19:05.768Z,78.60
2018-01-18T10:21:33.212Z,79.70
2018-01-18T10:24:00.716Z,79.90
2018-01-18T10:26:28.150Z,80.80
2018-01-18T10:28:55.569Z,82.60
2018-01-18T10:31:24.694Z,80.40
2018-01-18T10:33:52.136Z,80.40
2018-01-18T10:36:19.582Z,82.00
2018-01-18T10:38:47.788Z,81.40
2018-01-18T10:41:15.227Z,81.20
2018-01-18T10:43:42.656Z,82.00
2018-01-18T10:46:10.985Z,82.80
2018-01-18T10:48:40.081Z,83.10
2018-01-18T10:51:07.517Z,83.20
2018-01-18T10:53:34.936Z,84.10
2018-01-18T10:56:02.382Z,84.10
2018-01-18T10:58:30.969Z,83.70
2018-01-18T11:00:58.400Z,84.30
2018-01-18T11:03:25.842Z,86.20
2018-01-18T11:05:53.285Z,85.80
2018-01-18T11:08:21.481Z,85.70
2018-01-18T11:10:48.901Z,85.60
2018-01-18T11:13:17.096Z,87.80
2018-01-18T11:15:44.588Z,87.70
2018-01-18T11:18:12.017Z,88.90
2018-01-18T11:20:39.512Z,89.10
2018-01-18T11:23:06.933Z,89.80
2018-01-18T11:25:34.381Z,90.30
2018-01-18T11:28:01.815Z,90.20
2018-01-18T11:30:30.031Z,90.40
2018-01-18T11:32:57.436Z,90.40
2018-01-18T11:35:25.644Z,91.90
2018-01-18T11:37:53.069Z,91.50
2018-01-18T11:40:20.500Z,92.00
2018-01-18T11:42:48.005Z,92.00
2018-01-18T11:45:16.209Z,93.00
2018-01-18T11:47:43.637Z,92.90
2018-01-18T11:50:11.857Z,93.00
2018-01-18T11:52:39.296Z,93.00
2018-01-18T11:55:06.732Z,93.00
2018-01-18T11:57:34.921Z,93.10
2018-01-18T12:00:02.360Z,93.10
2018-01-18T12:02:30.565Z,93.60
2018-01-18T12:04:57.984Z,93.60
2018-01-18T12:07:26.195Z,93.20
2018-01-18T12:09:53.632Z,93.20
2018-01-18T12:12:21.860Z,93.40
2018-01-18T12:14:49.264Z,93.40
2018-01-18T12:17:16.689Z,93.40
2018-01-18T12:19:44.116Z,92.50
2018-01-18T12:22:11.556Z,93.00
2018-01-18T12:24:39.032Z,93.00
2018-01-18T12:27:06.471Z,94.40
2018-01-18T12:29:33.876Z,94.60
2018-01-18T12:32:01.308Z,95.90
2018-01-18T12:34:28.736Z,96.60
2018-01-18T12:36:56.178Z,97.10
2018-01-18T12:39:24.435Z,97.80
2018-01-18T12:41:51.865Z,98.70
2018-01-18T12:44:19.289Z,98.80
2018-01-18T12:46:46.733Z,99.50
2018-01-18T12:49:14.149Z,99.80
2018-01-18T12:51:41.588Z,99.90
2018-01-18T12:54:09.030Z,99.90
2018-01-18T12:56:36.458Z,99.90
2018-01-18T12:59:03.888Z,99.90
2018-01-18T13:01:32.092Z,99.90
2018-01-18T13:03:59.532Z,99.90
2018-01-18T13:06:27.711Z,99.90
2018-01-18T13:08:55.902Z,99.90
2018-01-18T13:11:23.339Z,99.90
2018-01-18T13:13:51.528Z,99.90
2018-01-18T13:16:18.960Z,99.90
2018-01-18T13:18:47.163Z,99.90
2018-01-18T13:21:14.611Z,99.90
2018-01-18T13:23:42.849Z,99.60
2018-01-18T13:26:10.293Z,99.50
2018-01-18T13:28:38.498Z,98.50
2018-01-18T13:31:05.933Z,98.50
2018-01-18T13:33:33.506Z,98.80
2018-01-18T13:36:00.948Z,98.90
2018-01-18T13:38:28.371Z,98.20
2018-01-18T13:40:55.796Z,97.80
2018-01-18T13:43:24.909Z,98.60
2018-01-18T13:45:52.349Z,98.50
2018-01-18T13:48:20.536Z,97.90
2018-01-18T13:50:47.973Z,98.20
2018-01-18T13:53:16.174Z,98.00
2018-01-18T13:55:44.375Z,98.00
2018-01-18T13:58:11.816Z,98.00
2018-01-18T14:00:39.252Z,97.70
2018-01-18T14:03:06.701Z,97.40
2018-01-18T14:05:34.922Z,98.00
2018-01-18T14:08:02.351Z,98.00
2018-01-18T14:10:29.780Z,97.50
2018-01-18T14:12:57.223Z,97.80
2018-01-18T14:15:25.073Z,96.90
2018-01-18T14:17:52.510Z,97.50
2018-01-18T14:20:19.940Z,96.90
2018-01-18T14:22:48.144Z,96.50
2018-01-18T14:25:15.563Z,96.50
2018-01-18T14:27:43.764Z,95.70
2018-01-18T14:30:11.180Z,95.60
2018-01-18T14:32:38.645Z,96.30
2018-01-18T14:35:06.834Z,96.30
2018-01-18T14:37:35.031Z,96.30
2018-01-18T14:40:02.452Z,96.30
2018-01-18T14:42:32.672Z,96.20
2018-01-18T14:45:00.868Z,96.00
2018-01-18T14:47:28.309Z,96.00
2018-01-18T14:49:56.501Z,97.20
2018-01-18T14:52:23.933Z,97.10
2018-01-18T14:54:51.400Z,97.40
2018-01-18T14:57:18.824Z,97.10
2018-01-18T14:59:46.257Z,96.90
2018-01-18T15:02:13.705Z,97.00
2018-01-18T15:04:42.149Z,97.70
2018-01-18T15:07:10.344Z,97.70
2018-01-18T15:09:37.795Z,97.70
2018-01-18T15:12:05.999Z,97.90
2018-01-18T15:14:33.424Z,97.90
2018-01-18T15:17:01.644Z,98.20
2018-01-18T15:19:29.077Z,98.10
2018-01-18T15:21:56.522Z,98.20
2018-01-18T15:24:23.943Z,98.20
2018-01-18T15:26:51.590Z,97.60
2018-01-18T15:29:19.053Z,97.10
2018-01-18T15:31:46.486Z,97.60
2018-01-18T15:34:13.921Z,97.60
2018-01-18T15:36:41.374Z,97.80
2018-01-18T15:39:08.801Z,97.70
2018-01-18T15:41:37.025Z,97.60
2018-01-18T15:44:04.506Z,97.40
2018-01-18T15:46:31.927Z,96.90
2018-01-18T15:48:59.387Z,97.60
2018-01-18T15:51:26.917Z,98.00
2018-01-18T15:53:54.328Z,97.90
2018-01-18T15:56:21.814Z,98.50
2018-01-18T15:58:49.254Z,99.30
2018-01-18T16:01:16.689Z,98.90
2018-01-18T16:03:44.131Z,98.80
2018-01-18T16:06:11.584Z,98.50
2018-01-18T16:08:39.025Z,98.60
2018-01-18T16:11:07.227Z,98.70
2018-01-18T16:13:34.664Z,98.60
2018-01-18T16:16:02.101Z,98.40
2018-01-18T16:18:29.538Z,97.90
2018-01-18T16:20:56.983Z,98.50
2018-01-18T16:23:25.170Z,97.90
2018-01-18T16:25:53.164Z,97.30
2018-01-18T16:28:21.369Z,96.80
2018-01-18T16:30:48.792Z,96.80
2018-01-18T16:33:16.997Z,96.90
2018-01-18T16:35:44.472Z,96.70
2018-01-18T16:38:11.892Z,95.90
2018-01-18T16:40:40.092Z,95.80
2018-01-18T16:43:07.508Z,95.80
2018-01-18T16:45:34.932Z,95.60
2018-01-18T16:48:02.364Z,95.80
2018-01-18T16:50:29.801Z,95.80
2018-01-18T16:52:57.994Z,95.30
2018-01-18T16:55:25.425Z,95.20
2018-01-18T16:57:53.636Z,95.30
2018-01-18T17:00:21.064Z,95.30
2018-01-18T17:02:49.254Z,94.50
2018-01-18T17:05:16.684Z,94.50
2018-01-18T17:07:44.885Z,94.30
2018-01-18T17:10:12.330Z,94.20
2018-01-18T17:12:40.536Z,94.00
2018-01-18T17:15:07.964Z,94.00
2018-01-18T17:17:36.153Z,94.60
2018-01-18T17:20:03.848Z,94.60
2018-01-18T17:22:31.271Z,94.10
2018-01-18T17:24:58.694Z,93.70
2018-01-18T17:27:26.151Z,94.30
2018-01-18T17:29:53.576Z,94.10
2018-01-18T17:32:21.020Z,94.40
2018-01-18T17:34:48.446Z,94.10
2018-01-18T17:37:16.664Z,94.30
2018-01-18T17:39:44.092Z,94.30
2018-01-18T17:42:11.537Z,93.60
2018-01-18T17:44:39.753Z,93.70
2018-01-18T17:47:07.187Z,93.70
2018-01-18T17:49:34.622Z,93.50
2018-01-18T17:52:02.829Z,94.60
2018-01-18T17:54:30.297Z,94.60
2018-01-18T17:56:57.741Z,94.80
2018-01-18T17:59:25.317Z,94.30
2018-01-18T18:01:52.754Z,94.30
2018-01-18T18:04:20.180Z,93.40
2018-01-18T18:06:48.376Z,92.60
2018-01-18T18:09:15.804Z,92.60
2018-01-18T18:11:44.025Z,92.90
2018-01-18T18:14:11.463Z,92.90
2018-01-18T18:16:38.909Z,93.20
2018-01-18T18:19:07.173Z,92.80
2018-01-18T18:21:34.563Z,92.70
2018-01-18T18:24:02.001Z,92.70
2018-01-18T18:26:30.202Z,92.60
2018-01-18T18:28:57.633Z,92.60
2018-01-18T18:31:25.340Z,93.40
2018-01-18T18:33:52.781Z,93.20
2018-01-18T18:36:20.205Z,93.50
2018-01-18T18:38:48.413Z,93.80
2018-01-18T18:41:15.833Z,93.80
2018-01-18T18:43:44.048Z,93.40
2018-01-18T18:46:11.509Z,93.40
2018-01-18T18:48:38.958Z,93.60
2018-01-18T18:51:06.395Z,93.70
2018-01-18T18:53:33.837Z,93.60
2018-01-18T18:56:02.037Z,93.50
2018-01-18T18:58:29.470Z,93.40
2018-01-18T19:00:57.688Z,93.10
2018-01-18T19:03:26.166Z,94.30
2018-01-18T19:05:53.629Z,94.00
2018-01-18T19:08:21.082Z,93.60
2018-01-18T19:10:48.492Z,93.50
2018-01-18T19:13:17.716Z,93.20
2018-01-18T19:15:45.153Z,93.20
2018-01-18T19:18:13.357Z,93.40
2018-01-18T19:20:40.784Z,93.40
2018-01-18T19:23:08.976Z,93.00
2018-01-18T19:25:36.412Z,93.00
2018-01-18T19:28:03.838Z,92.90
2018-01-18T19:30:31.277Z,93.30
2018-01-18T19:32:58.710Z,92.90
2018-01-18T19:35:26.141Z,93.10
2018-01-18T19:37:54.361Z,93.20
2018-01-18T19:40:22.637Z,93.20
2018-01-18T19:42:50.076Z,93.10
2018-01-18T19:45:17.522Z,92.60
2018-01-18T19:47:45.738Z,92.70
2018-01-18T19:50:13.172Z,92.70
2018-01-18T19:52:40.600Z,92.40
2018-01-18T19:55:08.800Z,92.20
2018-01-18T19:57:36.241Z,92.40
2018-01-18T20:00:04.443Z,92.80
2018-01-18T20:02:31.880Z,92.70
2018-01-18T20:05:00.101Z,92.30
2018-01-18T20:07:27.594Z,92.30
2018-01-18T20:09:55.776Z,92.30
2018-01-18T20:12:23.989Z,92.20
2018-01-18T20:14:51.448Z,92.10
2018-01-18T20:17:18.897Z,92.00
2018-01-18T20:19:46.328Z,92.00
2018-01-18T20:22:14.556Z,92.60
2018-01-18T20:24:41.984Z,92.60
2018-01-18T20:27:09.425Z,92.90
2018-01-18T20:29:37.636Z,93.00
2018-01-18T20:32:05.085Z,93.00
2018-01-18T20:34:32.524Z,92.90
2018-01-18T20:37:00.712Z,93.20
2018-01-18T20:39:28.145Z,93.20
2018-01-18T20:41:56.370Z,93.20
2018-01-18T20:44:23.788Z,93.30
2018-01-18T20:46:51.226Z,93.30
2018-01-18T20:49:19.446Z,93.40
2018-01-18T20:51:47.600Z,93.40
2018-01-18T20:54:15.041Z,93.70
2018-01-18T20:56:43.228Z,94.20
2018-01-18T20:59:10.666Z,94.20
2018-01-18T21:01:38.876Z,93.80
2018-01-18T21:04:06.304Z,93.80
2018-01-18T21:06:34.503Z,93.50
2018-01-18T21:09:01.931Z,93.50
2018-01-18T21:11:30.124Z,93.70
2018-01-18T21:13:57.590Z,93.70
2018-01-18T21:16:25.506Z,93.40
2018-01-18T21:18:52.940Z,93.20
2018-01-18T21:21:20.378Z,93.10
2018-01-18T21:23:47.818Z,93.00
2018-01-18T21:26:15.258Z,93.00
2018-01-18T21:28:43.460Z,93.70
2018-01-18T21:31:10.881Z,93.20
2018-01-18T21:33:38.320Z,93.00
2018-01-18T21:36:05.764Z,93.20
2018-01-18T21:38:33.202Z,93.10
2018-01-18T21:41:00.629Z,93.10
2018-01-18T21:43:28.839Z,93.40
2018-01-18T21:45:57.017Z,93.40
2018-01-18T21:48:24.454Z,93.40
2018-01-18T21:50:52.065Z,93.30
2018-01-18T21:53:19.468Z,93.40
2018-01-18T21:55:46.905Z,93.40
2018-01-18T21:58:15.111Z,93.90
2018-01-18T22:00:42.552Z,94.00
2018-01-18T22:03:10.001Z,93.50
2018-01-18T22:05:38.197Z,93.50
2018-01-18T22:08:05.655Z,93.40
2018-01-18T22:10:33.089Z,93.70
2018-01-18T22:13:01.281Z,94.10
2018-01-18T22:15:28.717Z,94.10
2018-01-18T22:17:56.906Z,94.30
2018-01-18T22:20:24.365Z,94.30
2018-01-18T22:22:51.820Z,94.00
2018-01-18T22:25:19.996Z,93.40
2018-01-18T22:27:47.432Z,93.40
2018-01-18T22:30:15.632Z,93.40
2018-01-18T22:32:43.060Z,93.40
2018-01-18T22:35:11.279Z,93.60
2018-01-18T22:37:38.701Z,93.60
2018-01-18T22:40:06.900Z,93.30
2018-01-18T22:42:35.244Z,93.30
2018-01-18T22:45:02.687Z,93.20
2018-01-18T22:47:30.114Z,93.40
2018-01-18T22:49:57.545Z,93.30
2018-01-18T22:52:25.676Z,93.00
2018-01-18T22:54:53.124Z,93.20
2018-01-18T22:57:20.547Z,92.90
2018-01-18T22:59:47.993Z,92.90
2018-01-18T23:02:15.419Z,92.80
2018-01-18T23:04:42.849Z,92.90
2018-01-18T23:07:10.275Z,92.70
2018-01-18T23:09:37.705Z,92.70
2018-01-18T23:12:05.926Z,92.50
2018-01-18T23:14:33.384Z,92.50
2018-01-18T23:17:00.833Z,92.70
2018-01-18T23:19:28.303Z,92.60
2018-01-18T23:21:55.756Z,92.70
2018-01-18T23:24:23.947Z,92.40
2018-01-18T23:26:51.475Z,92.40
2018-01-18T23:29:18.884Z,92.20
2018-01-18T23:31:46.333Z,92.20
2018-01-18T23:34:13.761Z,92.30
2018-01-18T23:36:41.204Z,92.40
2018-01-18T23:39:08.655Z,92.40
2018-01-18T23:41:36.839Z,92.50
2018-01-18T23:44:04.329Z,92.50
2018-01-18T23:46:31.765Z,92.60
2018-01-18T23:48:59.173Z,92.60
2018-01-18T23:51:27.369Z,92.70
2018-01-18T23:53:54.796Z,92.70
2018-01-18T23:56:22.999Z,92.70
2018-01-18T23:58:50.429Z,92.70
